sensor_id;sensor_type;location;lat;lon;timestamp;temperature;humidity
22923;DHT22;11627;51.322;22.816;2023-04-05T00:01:32;-2.60;99.90
22923;DHT22;11627;51.322;22.816;2023-04-05T00:03:59;-2.60;99.90
22923;DHT22;11627;51.322;22.816;2023-04-05T00:06:28;-2.60;99.90
22923;DHT22;11627;51.322;22.816;2023-04-05T00:08:59;-2.50;99.90
22923;DHT22;11627;51.322;22.816;2023-04-05T00:11:26;-2.50;99.90
22923;DHT22;11627;51.322;22.816;2023-04-05T00:13:52;-2.40;99.90
22923;DHT22;11627;51.322;22.816;2023-04-05T00:16:19;-2.40;99.90
22923;DHT22;11627;51.322;22.816;2023-04-05T00:18:49;-2.30;99.90
22923;DHT22;11627;51.322;22.816;2023-04-05T00:21:20;-2.20;99.90
22923;DHT22;11627;51.322;22.816;2023-04-05T00:23:47;-2.20;99.90
22923;DHT22;11627;51.322;22.816;2023-04-05T00:26:14;-2.20;99.90
22923;DHT22;11627;51.322;22.816;2023-04-05T00:28:40;-2.20;99.90
22923;DHT22;11627;51.322;22.816;2023-04-05T00:31:06;-2.20;99.90
22923;DHT22;11627;51.322;22.816;2023-04-05T00:33:32;-2.20;99.90
22923;DHT22;11627;51.322;22.816;2023-04-05T00:36:17;-2.20;99.90
22923;DHT22;11627;51.322;22.816;2023-04-05T00:38:45;-2.30;99.90
22923;DHT22;11627;51.322;22.816;2023-04-05T00:41:11;-2.20;99.90
22923;DHT22;11627;51.322;22.816;2023-04-05T00:43:37;-2.20;99.90
22923;DHT22;11627;51.322;22.816;2023-04-05T00:46:07;-2.10;99.90
22923;DHT22;11627;51.322;22.816;2023-04-05T00:48:34;-2.10;99.90
22923;DHT22;11627;51.322;22.816;2023-04-05T00:51:01;-2.00;99.90
22923;DHT22;11627;51.322;22.816;2023-04-05T00:53:27;-2.00;99.90
22923;DHT22;11627;51.322;22.816;2023-04-05T00:55:53;-1.90;99.90
22923;DHT22;11627;51.322;22.816;2023-04-05T00:58:21;-1.90;99.90
22923;DHT22;11627;51.322;22.816;2023-04-05T01:01:05;-2.00;99.90
22923;DHT22;11627;51.322;22.816;2023-04-05T01:03:34;-2.00;99.90
22923;DHT22;11627;51.322;22.816;2023-04-05T01:06:15;-1.90;99.90
22923;DHT22;11627;51.322;22.816;2023-04-05T01:09:04;-1.90;99.90
22923;DHT22;11627;51.322;22.816;2023-04-05T01:11:34;-2.10;99.90
22923;DHT22;11627;51.322;22.816;2023-04-05T01:14:02;-2.10;99.90
22923;DHT22;11627;51.322;22.816;2023-04-05T01:16:29;-2.10;99.90
22923;DHT22;11627;51.322;22.816;2023-04-05T01:18:56;-2.10;99.90
22923;DHT22;11627;51.322;22.816;2023-04-05T01:24:36;-2.00;99.90
22923;DHT22;11627;51.322;22.816;2023-04-05T01:27:07;-1.90;99.90
22923;DHT22;11627;51.322;22.816;2023-04-05T01:29:44;-2.10;99.90
22923;DHT22;11627;51.322;22.816;2023-04-05T01:38:29;-2.50;99.90
22923;DHT22;11627;51.322;22.816;2023-04-05T01:40:57;-2.50;99.90
22923;DHT22;11627;51.322;22.816;2023-04-05T01:43:23;-2.60;99.90
22923;DHT22;11627;51.322;22.816;2023-04-05T01:45:49;-2.70;99.90
22923;DHT22;11627;51.322;22.816;2023-04-05T01:48:14;-2.70;99.90
22923;DHT22;11627;51.322;22.816;2023-04-05T01:50:40;-2.70;99.90
22923;DHT22;11627;51.322;22.816;2023-04-05T01:53:08;-2.70;99.90
22923;DHT22;11627;51.322;22.816;2023-04-05T01:55:33;-2.70;99.90
22923;DHT22;11627;51.322;22.816;2023-04-05T01:57:59;-2.60;99.90
22923;DHT22;11627;51.322;22.816;2023-04-05T02:00:27;-2.60;99.90
22923;DHT22;11627;51.322;22.816;2023-04-05T02:02:54;-2.70;99.90
22923;DHT22;11627;51.322;22.816;2023-04-05T02:05:20;-2.70;99.90
22923;DHT22;11627;51.322;22.816;2023-04-05T02:07:46;-2.70;99.90
22923;DHT22;11627;51.322;22.816;2023-04-05T02:10:11;-2.70;99.90
22923;DHT22;11627;51.322;22.816;2023-04-05T02:12:37;-2.80;99.90
22923;DHT22;11627;51.322;22.816;2023-04-05T02:15:03;-2.90;99.90
22923;DHT22;11627;51.322;22.816;2023-04-05T02:17:29;-2.90;99.90
22923;DHT22;11627;51.322;22.816;2023-04-05T02:20:08;-2.90;99.90
22923;DHT22;11627;51.322;22.816;2023-04-05T02:22:35;-2.90;99.90
22923;DHT22;11627;51.322;22.816;2023-04-05T02:25:02;-3.00;99.90
22923;DHT22;11627;51.322;22.816;2023-04-05T02:27:29;-3.00;99.90
22923;DHT22;11627;51.322;22.816;2023-04-05T02:29:54;-2.90;99.90
22923;DHT22;11627;51.322;22.816;2023-04-05T02:32:23;-3.00;99.90
22923;DHT22;11627;51.322;22.816;2023-04-05T02:34:49;-3.00;99.90
22923;DHT22;11627;51.322;22.816;2023-04-05T02:37:17;-3.10;99.90
22923;DHT22;11627;51.322;22.816;2023-04-05T02:39:43;-3.10;99.90
22923;DHT22;11627;51.322;22.816;2023-04-05T02:42:10;-3.10;99.90
22923;DHT22;11627;51.322;22.816;2023-04-05T02:44:36;-3.10;99.90
22923;DHT22;11627;51.322;22.816;2023-04-05T02:47:01;-3.10;99.90
22923;DHT22;11627;51.322;22.816;2023-04-05T02:49:27;-3.10;99.90
22923;DHT22;11627;51.322;22.816;2023-04-05T02:51:53;-3.10;99.90
22923;DHT22;11627;51.322;22.816;2023-04-05T02:54:20;-3.10;99.90
22923;DHT22;11627;51.322;22.816;2023-04-05T02:56:46;-3.20;99.90
22923;DHT22;11627;51.322;22.816;2023-04-05T02:59:16;-3.20;99.90
22923;DHT22;11627;51.322;22.816;2023-04-05T03:01:42;-3.20;99.90
22923;DHT22;11627;51.322;22.816;2023-04-05T03:04:09;-3.10;99.90
22923;DHT22;11627;51.322;22.816;2023-04-05T03:06:37;-3.20;99.90
22923;DHT22;11627;51.322;22.816;2023-04-05T03:09:03;-3.20;99.90
22923;DHT22;11627;51.322;22.816;2023-04-05T03:11:32;-3.20;99.90
22923;DHT22;11627;51.322;22.816;2023-04-05T03:13:57;-3.20;99.90
22923;DHT22;11627;51.322;22.816;2023-04-05T03:16:24;-3.20;99.90
22923;DHT22;11627;51.322;22.816;2023-04-05T03:18:51;-3.20;99.90
22923;DHT22;11627;51.322;22.816;2023-04-05T03:21:17;-3.20;99.90
22923;DHT22;11627;51.322;22.816;2023-04-05T03:23:46;-3.20;99.90
22923;DHT22;11627;51.322;22.816;2023-04-05T03:26:13;-3.20;99.90
22923;DHT22;11627;51.322;22.816;2023-04-05T03:28:39;-3.30;99.90
22923;DHT22;11627;51.322;22.816;2023-04-05T03:31:11;-3.30;99.90
22923;DHT22;11627;51.322;22.816;2023-04-05T03:33:37;-3.30;99.90
22923;DHT22;11627;51.322;22.816;2023-04-05T03:36:04;-3.30;99.90
22923;DHT22;11627;51.322;22.816;2023-04-05T03:38:31;-3.30;99.90
22923;DHT22;11627;51.322;22.816;2023-04-05T03:40:57;-3.30;99.90
22923;DHT22;11627;51.322;22.816;2023-04-05T03:43:23;-3.30;99.90
22923;DHT22;11627;51.322;22.816;2023-04-05T03:45:49;-3.20;99.90
22923;DHT22;11627;51.322;22.816;2023-04-05T03:48:14;-3.10;99.90
22923;DHT22;11627;51.322;22.816;2023-04-05T03:50:46;-3.20;99.90
22923;DHT22;11627;51.322;22.816;2023-04-05T03:53:12;-3.10;99.90
22923;DHT22;11627;51.322;22.816;2023-04-05T03:55:37;-3.10;99.90
22923;DHT22;11627;51.322;22.816;2023-04-05T03:58:04;-3.00;99.90
22923;DHT22;11627;51.322;22.816;2023-04-05T04:00:30;-3.00;99.90
22923;DHT22;11627;51.322;22.816;2023-04-05T04:02:57;-2.90;99.90
22923;DHT22;11627;51.322;22.816;2023-04-05T04:05:23;-3.00;99.90
22923;DHT22;11627;51.322;22.816;2023-04-05T04:07:48;-2.80;99.90
22923;DHT22;11627;51.322;22.816;2023-04-05T04:10:16;-3.00;99.90
22923;DHT22;11627;51.322;22.816;2023-04-05T04:12:42;-3.00;99.90
22923;DHT22;11627;51.322;22.816;2023-04-05T04:15:08;-3.00;99.90
22923;DHT22;11627;51.322;22.816;2023-04-05T04:17:37;-2.90;99.90
22923;DHT22;11627;51.322;22.816;2023-04-05T04:20:06;-3.00;99.90
22923;DHT22;11627;51.322;22.816;2023-04-05T04:22:36;-3.30;99.90
22923;DHT22;11627;51.322;22.816;2023-04-05T04:25:09;-3.30;99.90
22923;DHT22;11627;51.322;22.816;2023-04-05T04:27:40;-3.10;99.90
22923;DHT22;11627;51.322;22.816;2023-04-05T04:30:11;-3.10;99.90
22923;DHT22;11627;51.322;22.816;2023-04-05T04:32:38;-3.20;99.90
22923;DHT22;11627;51.322;22.816;2023-04-05T04:35:18;-3.10;99.90
22923;DHT22;11627;51.322;22.816;2023-04-05T04:37:50;-3.00;99.90
22923;DHT22;11627;51.322;22.816;2023-04-05T04:40:17;-3.10;99.90
22923;DHT22;11627;51.322;22.816;2023-04-05T04:42:46;-3.10;99.90
22923;DHT22;11627;51.322;22.816;2023-04-05T04:45:15;-3.20;99.90
22923;DHT22;11627;51.322;22.816;2023-04-05T04:47:46;-3.30;99.90
22923;DHT22;11627;51.322;22.816;2023-04-05T04:50:12;-3.30;99.90
22923;DHT22;11627;51.322;22.816;2023-04-05T04:52:39;-3.30;99.90
22923;DHT22;11627;51.322;22.816;2023-04-05T04:55:07;-3.30;99.90
22923;DHT22;11627;51.322;22.816;2023-04-05T04:57:33;-3.20;99.90
22923;DHT22;11627;51.322;22.816;2023-04-05T04:59:59;-3.10;99.90
22923;DHT22;11627;51.322;22.816;2023-04-05T05:02:26;-3.00;99.90
22923;DHT22;11627;51.322;22.816;2023-04-05T05:04:54;-3.00;99.90
22923;DHT22;11627;51.322;22.816;2023-04-05T05:07:20;-2.90;99.90
22923;DHT22;11627;51.322;22.816;2023-04-05T05:09:53;-2.80;99.90
22923;DHT22;11627;51.322;22.816;2023-04-05T05:12:20;-2.70;99.90
22923;DHT22;11627;51.322;22.816;2023-04-05T05:14:47;-2.80;99.90
22923;DHT22;11627;51.322;22.816;2023-04-05T05:17:13;-2.90;99.90
22923;DHT22;11627;51.322;22.816;2023-04-05T05:19:39;-3.10;99.90
22923;DHT22;11627;51.322;22.816;2023-04-05T05:22:05;-3.30;99.90
22923;DHT22;11627;51.322;22.816;2023-04-05T05:24:32;-3.40;99.90
22923;DHT22;11627;51.322;22.816;2023-04-05T05:26:59;-3.40;99.90
22923;DHT22;11627;51.322;22.816;2023-04-05T05:29:25;-3.40;99.90
22923;DHT22;11627;51.322;22.816;2023-04-05T05:31:51;-3.40;99.90
22923;DHT22;11627;51.322;22.816;2023-04-05T05:34:17;-3.30;99.90
22923;DHT22;11627;51.322;22.816;2023-04-05T05:36:43;-3.20;99.90
22923;DHT22;11627;51.322;22.816;2023-04-05T05:39:09;-3.10;99.90
22923;DHT22;11627;51.322;22.816;2023-04-05T05:41:35;-3.00;99.90
22923;DHT22;11627;51.322;22.816;2023-04-05T05:44:00;-3.10;99.90
22923;DHT22;11627;51.322;22.816;2023-04-05T05:46:26;-3.10;99.90
22923;DHT22;11627;51.322;22.816;2023-04-05T05:48:52;-3.00;99.90
22923;DHT22;11627;51.322;22.816;2023-04-05T05:51:17;-2.90;99.90
22923;DHT22;11627;51.322;22.816;2023-04-05T05:53:43;-2.90;99.90
22923;DHT22;11627;51.322;22.816;2023-04-05T05:56:10;-2.80;99.90
22923;DHT22;11627;51.322;22.816;2023-04-05T05:58:36;-2.60;99.90
22923;DHT22;11627;51.322;22.816;2023-04-05T06:01:02;-2.50;99.90
22923;DHT22;11627;51.322;22.816;2023-04-05T06:03:28;-2.40;99.90
22923;DHT22;11627;51.322;22.816;2023-04-05T06:05:56;-2.20;99.90
22923;DHT22;11627;51.322;22.816;2023-04-05T06:08:23;-2.20;99.90
22923;DHT22;11627;51.322;22.816;2023-04-05T06:10:51;-2.10;99.90
22923;DHT22;11627;51.322;22.816;2023-04-05T06:13:19;-2.20;99.90
22923;DHT22;11627;51.322;22.816;2023-04-05T06:15:46;-2.20;99.90
22923;DHT22;11627;51.322;22.816;2023-04-05T06:18:12;-2.30;99.90
22923;DHT22;11627;51.322;22.816;2023-04-05T06:20:39;-2.60;99.90
22923;DHT22;11627;51.322;22.816;2023-04-05T06:23:06;-2.70;99.90
22923;DHT22;11627;51.322;22.816;2023-04-05T06:25:32;-2.70;99.90
22923;DHT22;11627;51.322;22.816;2023-04-05T06:27:57;-2.70;99.90
22923;DHT22;11627;51.322;22.816;2023-04-05T06:30:23;-2.60;99.90
22923;DHT22;11627;51.322;22.816;2023-04-05T06:32:49;-2.50;99.90
22923;DHT22;11627;51.322;22.816;2023-04-05T06:35:21;-2.50;99.90
22923;DHT22;11627;51.322;22.816;2023-04-05T06:37:46;-2.50;99.90
22923;DHT22;11627;51.322;22.816;2023-04-05T06:40:13;-2.60;99.90
22923;DHT22;11627;51.322;22.816;2023-04-05T06:42:39;-2.60;99.90
22923;DHT22;11627;51.322;22.816;2023-04-05T06:45:05;-2.50;99.90
22923;DHT22;11627;51.322;22.816;2023-04-05T06:47:39;-2.30;99.90
22923;DHT22;11627;51.322;22.816;2023-04-05T06:50:07;-2.30;99.90
22923;DHT22;11627;51.322;22.816;2023-04-05T06:52:34;-2.10;99.90
22923;DHT22;11627;51.322;22.816;2023-04-05T06:55:00;-2.00;99.90
22923;DHT22;11627;51.322;22.816;2023-04-05T06:57:26;-1.80;99.90
22923;DHT22;11627;51.322;22.816;2023-04-05T06:59:53;-1.70;99.90
22923;DHT22;11627;51.322;22.816;2023-04-05T07:02:20;-1.60;99.90
22923;DHT22;11627;51.322;22.816;2023-04-05T07:04:48;-2.00;99.90
22923;DHT22;11627;51.322;22.816;2023-04-05T07:07:14;-2.10;99.90
22923;DHT22;11627;51.322;22.816;2023-04-05T07:09:41;-2.00;99.90
22923;DHT22;11627;51.322;22.816;2023-04-05T07:12:07;-2.20;99.90
22923;DHT22;11627;51.322;22.816;2023-04-05T07:14:35;-2.30;99.90
22923;DHT22;11627;51.322;22.816;2023-04-05T07:17:02;-2.20;99.90
22923;DHT22;11627;51.322;22.816;2023-04-05T07:19:31;-2.20;99.90
22923;DHT22;11627;51.322;22.816;2023-04-05T07:21:58;-1.90;99.90
22923;DHT22;11627;51.322;22.816;2023-04-05T07:24:24;-1.80;99.90
22923;DHT22;11627;51.322;22.816;2023-04-05T07:26:50;-1.70;99.90
22923;DHT22;11627;51.322;22.816;2023-04-05T07:29:16;-1.50;99.90
22923;DHT22;11627;51.322;22.816;2023-04-05T07:31:42;-1.40;99.90
22923;DHT22;11627;51.322;22.816;2023-04-05T07:34:08;-1.50;99.90
22923;DHT22;11627;51.322;22.816;2023-04-05T07:36:34;-1.80;99.90
22923;DHT22;11627;51.322;22.816;2023-04-05T07:39:00;-2.00;99.90
22923;DHT22;11627;51.322;22.816;2023-04-05T07:41:27;-2.10;99.90
22923;DHT22;11627;51.322;22.816;2023-04-05T07:43:57;-2.10;99.90
22923;DHT22;11627;51.322;22.816;2023-04-05T07:46:24;-2.30;99.90
22923;DHT22;11627;51.322;22.816;2023-04-05T07:48:51;-2.10;99.90
22923;DHT22;11627;51.322;22.816;2023-04-05T07:51:18;-2.00;99.90
22923;DHT22;11627;51.322;22.816;2023-04-05T07:53:44;-1.80;99.90
22923;DHT22;11627;51.322;22.816;2023-04-05T07:56:11;-1.80;99.90
22923;DHT22;11627;51.322;22.816;2023-04-05T07:58:39;-1.70;99.90
22923;DHT22;11627;51.322;22.816;2023-04-05T08:01:06;-1.70;99.90
22923;DHT22;11627;51.322;22.816;2023-04-05T08:03:33;-1.50;99.90
22923;DHT22;11627;51.322;22.816;2023-04-05T08:06:08;-1.60;99.90
22923;DHT22;11627;51.322;22.816;2023-04-05T08:08:36;-1.70;99.90
22923;DHT22;11627;51.322;22.816;2023-04-05T08:11:06;-1.70;99.90
22923;DHT22;11627;51.322;22.816;2023-04-05T08:13:32;-1.70;99.90
22923;DHT22;11627;51.322;22.816;2023-04-05T08:16:03;-1.70;99.90
22923;DHT22;11627;51.322;22.816;2023-04-05T08:18:29;-1.50;99.90
22923;DHT22;11627;51.322;22.816;2023-04-05T08:20:57;-1.20;99.90
22923;DHT22;11627;51.322;22.816;2023-04-05T08:23:24;-1.30;99.90
22923;DHT22;11627;51.322;22.816;2023-04-05T08:25:50;-1.20;99.90
22923;DHT22;11627;51.322;22.816;2023-04-05T08:28:16;-1.00;99.90
22923;DHT22;11627;51.322;22.816;2023-04-05T08:30:44;-1.10;99.90
22923;DHT22;11627;51.322;22.816;2023-04-05T08:33:11;-0.90;99.90
22923;DHT22;11627;51.322;22.816;2023-04-05T08:35:38;-0.80;99.90
22923;DHT22;11627;51.322;22.816;2023-04-05T08:38:07;-0.80;99.90
22923;DHT22;11627;51.322;22.816;2023-04-05T08:40:40;-0.90;99.90
22923;DHT22;11627;51.322;22.816;2023-04-05T08:43:09;-0.80;99.90
22923;DHT22;11627;51.322;22.816;2023-04-05T08:45:42;-0.80;99.90
22923;DHT22;11627;51.322;22.816;2023-04-05T08:48:08;-1.00;99.90
22923;DHT22;11627;51.322;22.816;2023-04-05T08:50:34;-1.20;99.90
22923;DHT22;11627;51.322;22.816;2023-04-05T08:53:00;-0.90;99.90
22923;DHT22;11627;51.322;22.816;2023-04-05T08:55:27;-0.70;99.90
22923;DHT22;11627;51.322;22.816;2023-04-05T08:57:53;-0.60;99.90
22923;DHT22;11627;51.322;22.816;2023-04-05T09:00:23;-0.60;99.90
22923;DHT22;11627;51.322;22.816;2023-04-05T09:02:54;-0.60;99.90
22923;DHT22;11627;51.322;22.816;2023-04-05T09:05:23;-0.50;99.90
22923;DHT22;11627;51.322;22.816;2023-04-05T09:07:49;-0.50;99.90
22923;DHT22;11627;51.322;22.816;2023-04-05T09:10:18;-0.50;99.90
22923;DHT22;11627;51.322;22.816;2023-04-05T09:12:45;-0.40;99.90
22923;DHT22;11627;51.322;22.816;2023-04-05T09:15:10;-0.50;99.90
22923;DHT22;11627;51.322;22.816;2023-04-05T09:17:38;-0.20;99.60
22923;DHT22;11627;51.322;22.816;2023-04-05T09:20:06;-0.10;74.80
22923;DHT22;11627;51.322;22.816;2023-04-05T09:22:43;-0.30;75.60
22923;DHT22;11627;51.322;22.816;2023-04-05T09:25:10;-0.40;77.70
22923;DHT22;11627;51.322;22.816;2023-04-05T09:27:53;-0.40;82.30
22923;DHT22;11627;51.322;22.816;2023-04-05T09:30:29;-0.20;90.10
22923;DHT22;11627;51.322;22.816;2023-04-05T09:32:58;0.20;75.40
22923;DHT22;11627;51.322;22.816;2023-04-05T09:35:26;0.50;52.40
22923;DHT22;11627;51.322;22.816;2023-04-05T09:37:57;0.60;37.30
22923;DHT22;11627;51.322;22.816;2023-04-05T09:40:46;0.90;24.10
22923;DHT22;11627;51.322;22.816;2023-04-05T09:45:59;0.90;3.20
22923;DHT22;11627;51.322;22.816;2023-04-05T09:48:48;0.90;15.20
22923;DHT22;11627;51.322;22.816;2023-04-05T09:51:15;0.90;7.20
22923;DHT22;11627;51.322;22.816;2023-04-05T09:54:05;0.60;7.30
22923;DHT22;11627;51.322;22.816;2023-04-05T09:56:39;0.30;13.30
22923;DHT22;11627;51.322;22.816;2023-04-05T09:59:10;0.40;22.20
22923;DHT22;11627;51.322;22.816;2023-04-05T10:01:37;0.30;4.50
22923;DHT22;11627;51.322;22.816;2023-04-05T10:04:03;0.50;15.60
22923;DHT22;11627;51.322;22.816;2023-04-05T10:06:41;0.60;19.80
22923;DHT22;11627;51.322;22.816;2023-04-05T10:09:09;0.90;1.00
22923;DHT22;11627;51.322;22.816;2023-04-05T10:11:37;1.00;1.00
22923;DHT22;11627;51.322;22.816;2023-04-05T10:14:04;1.20;1.00
22923;DHT22;11627;51.322;22.816;2023-04-05T10:16:51;1.30;1.00
22923;DHT22;11627;51.322;22.816;2023-04-05T10:19:28;1.40;1.00
22923;DHT22;11627;51.322;22.816;2023-04-05T10:22:00;1.20;1.00
22923;DHT22;11627;51.322;22.816;2023-04-05T10:24:33;1.10;1.00
22923;DHT22;11627;51.322;22.816;2023-04-05T10:27:13;1.30;1.00
22923;DHT22;11627;51.322;22.816;2023-04-05T10:36:03;1.50;1.00
22923;DHT22;11627;51.322;22.816;2023-04-05T10:39:02;1.70;1.00
22923;DHT22;11627;51.322;22.816;2023-04-05T10:41:47;1.60;1.00
22923;DHT22;11627;51.322;22.816;2023-04-05T10:44:14;1.70;1.00
22923;DHT22;11627;51.322;22.816;2023-04-05T10:46:41;1.60;99.90
22923;DHT22;11627;51.322;22.816;2023-04-05T10:49:38;1.80;1.00
22923;DHT22;11627;51.322;22.816;2023-04-05T10:52:05;1.90;1.00
22923;DHT22;11627;51.322;22.816;2023-04-05T10:54:37;1.60;1.00
22923;DHT22;11627;51.322;22.816;2023-04-05T10:57:08;1.60;1.00
22923;DHT22;11627;51.322;22.816;2023-04-05T10:59:40;1.20;1.00
22923;DHT22;11627;51.322;22.816;2023-04-05T11:02:08;1.40;1.00
22923;DHT22;11627;51.322;22.816;2023-04-05T11:04:34;1.60;1.00
22923;DHT22;11627;51.322;22.816;2023-04-05T11:07:18;1.70;1.00
22923;DHT22;11627;51.322;22.816;2023-04-05T11:10:03;1.80;1.00
22923;DHT22;11627;51.322;22.816;2023-04-05T11:20:51;2.10;99.90
22923;DHT22;11627;51.322;22.816;2023-04-05T11:23:21;2.40;99.90
22923;DHT22;11627;51.322;22.816;2023-04-05T11:28:37;2.50;99.90
22923;DHT22;11627;51.322;22.816;2023-04-05T11:31:17;2.70;96.90
22923;DHT22;11627;51.322;22.816;2023-04-05T11:36:12;2.30;1.00
22923;DHT22;11627;51.322;22.816;2023-04-05T11:38:48;2.20;1.00
22923;DHT22;11627;51.322;22.816;2023-04-05T11:41:32;2.20;99.90
22923;DHT22;11627;51.322;22.816;2023-04-05T11:44:01;2.60;99.90
22923;DHT22;11627;51.322;22.816;2023-04-05T11:46:33;2.50;1.00
22923;DHT22;11627;51.322;22.816;2023-04-05T11:48:58;2.40;99.90
22923;DHT22;11627;51.322;22.816;2023-04-05T11:51:25;2.50;99.90
22923;DHT22;11627;51.322;22.816;2023-04-05T11:53:54;2.40;99.90
22923;DHT22;11627;51.322;22.816;2023-04-05T11:56:20;2.30;99.90
22923;DHT22;11627;51.322;22.816;2023-04-05T11:58:46;2.40;99.90
22923;DHT22;11627;51.322;22.816;2023-04-05T12:01:11;2.60;99.90
22923;DHT22;11627;51.322;22.816;2023-04-05T12:03:37;2.70;99.90
22923;DHT22;11627;51.322;22.816;2023-04-05T12:06:04;2.90;99.90
22923;DHT22;11627;51.322;22.816;2023-04-05T12:11:09;3.10;1.00
22923;DHT22;11627;51.322;22.816;2023-04-05T12:13:36;3.10;1.00
22923;DHT22;11627;51.322;22.816;2023-04-05T12:16:07;3.00;1.00
22923;DHT22;11627;51.322;22.816;2023-04-05T12:18:35;3.10;1.00
22923;DHT22;11627;51.322;22.816;2023-04-05T12:21:04;3.30;2.70
22923;DHT22;11627;51.322;22.816;2023-04-05T12:23:31;3.30;1.00
22923;DHT22;11627;51.322;22.816;2023-04-05T12:25:57;3.30;1.00
22923;DHT22;11627;51.322;22.816;2023-04-05T12:28:23;3.60;1.00
22923;DHT22;11627;51.322;22.816;2023-04-05T12:30:55;3.60;61.70
22923;DHT22;11627;51.322;22.816;2023-04-05T12:33:32;3.70;52.50
22923;DHT22;11627;51.322;22.816;2023-04-05T12:36:04;3.90;99.90
22923;DHT22;11627;51.322;22.816;2023-04-05T12:38:31;4.00;99.90
22923;DHT22;11627;51.322;22.816;2023-04-05T12:41:01;4.00;36.00
22923;DHT22;11627;51.322;22.816;2023-04-05T12:43:40;4.00;1.00
22923;DHT22;11627;51.322;22.816;2023-04-05T12:46:10;3.90;99.90
22923;DHT22;11627;51.322;22.816;2023-04-05T12:48:36;3.40;1.00
22923;DHT22;11627;51.322;22.816;2023-04-05T12:51:13;3.20;99.90
22923;DHT22;11627;51.322;22.816;2023-04-05T12:53:44;2.80;1.00
22923;DHT22;11627;51.322;22.816;2023-04-05T12:56:11;3.10;1.00
22923;DHT22;11627;51.322;22.816;2023-04-05T12:58:37;3.20;14.20
22923;DHT22;11627;51.322;22.816;2023-04-05T13:01:06;3.40;99.90
22923;DHT22;11627;51.322;22.816;2023-04-05T13:03:32;3.40;99.90
22923;DHT22;11627;51.322;22.816;2023-04-05T13:05:58;3.50;22.80
22923;DHT22;11627;51.322;22.816;2023-04-05T13:08:24;3.50;1.00
22923;DHT22;11627;51.322;22.816;2023-04-05T13:10:52;3.30;1.00
22923;DHT22;11627;51.322;22.816;2023-04-05T13:13:18;3.20;1.00
22923;DHT22;11627;51.322;22.816;2023-04-05T13:15:47;3.20;99.90
22923;DHT22;11627;51.322;22.816;2023-04-05T13:18:14;3.10;99.90
22923;DHT22;11627;51.322;22.816;2023-04-05T13:20:44;2.90;99.90
22923;DHT22;11627;51.322;22.816;2023-04-05T13:23:10;2.90;99.90
22923;DHT22;11627;51.322;22.816;2023-04-05T13:25:41;2.90;1.00
22923;DHT22;11627;51.322;22.816;2023-04-05T13:28:08;2.90;1.00
22923;DHT22;11627;51.322;22.816;2023-04-05T13:30:33;3.00;1.00
22923;DHT22;11627;51.322;22.816;2023-04-05T13:33:00;2.90;99.90
22923;DHT22;11627;51.322;22.816;2023-04-05T13:35:28;2.70;13.00
22923;DHT22;11627;51.322;22.816;2023-04-05T13:37:55;2.90;99.90
22923;DHT22;11627;51.322;22.816;2023-04-05T13:40:21;2.80;1.00
22923;DHT22;11627;51.322;22.816;2023-04-05T13:42:46;2.70;99.90
22923;DHT22;11627;51.322;22.816;2023-04-05T13:45:13;2.70;99.90
22923;DHT22;11627;51.322;22.816;2023-04-05T13:47:40;2.80;99.90
22923;DHT22;11627;51.322;22.816;2023-04-05T13:50:07;2.70;1.00
22923;DHT22;11627;51.322;22.816;2023-04-05T13:52:34;2.50;1.00
22923;DHT22;11627;51.322;22.816;2023-04-05T13:54:59;2.40;25.10
22923;DHT22;11627;51.322;22.816;2023-04-05T13:57:25;2.60;90.90
22923;DHT22;11627;51.322;22.816;2023-04-05T13:59:52;2.50;92.00
22923;DHT22;11627;51.322;22.816;2023-04-05T14:02:18;2.60;99.90
22923;DHT22;11627;51.322;22.816;2023-04-05T14:04:46;2.60;99.90
22923;DHT22;11627;51.322;22.816;2023-04-05T14:07:12;2.50;99.90
22923;DHT22;11627;51.322;22.816;2023-04-05T14:09:39;2.50;99.90
22923;DHT22;11627;51.322;22.816;2023-04-05T14:12:06;2.40;99.90
22923;DHT22;11627;51.322;22.816;2023-04-05T14:14:32;2.40;99.90
22923;DHT22;11627;51.322;22.816;2023-04-05T14:16:59;2.40;99.90
22923;DHT22;11627;51.322;22.816;2023-04-05T14:19:27;2.40;99.90
22923;DHT22;11627;51.322;22.816;2023-04-05T14:21:52;2.50;99.90
22923;DHT22;11627;51.322;22.816;2023-04-05T14:24:19;2.50;99.90
22923;DHT22;11627;51.322;22.816;2023-04-05T14:26:46;2.50;99.90
22923;DHT22;11627;51.322;22.816;2023-04-05T14:29:19;2.50;99.90
22923;DHT22;11627;51.322;22.816;2023-04-05T14:31:47;2.50;99.90
22923;DHT22;11627;51.322;22.816;2023-04-05T14:34:12;2.40;99.90
22923;DHT22;11627;51.322;22.816;2023-04-05T14:36:39;2.30;99.90
22923;DHT22;11627;51.322;22.816;2023-04-05T14:39:07;2.40;99.90
22923;DHT22;11627;51.322;22.816;2023-04-05T14:41:35;2.40;99.90
22923;DHT22;11627;51.322;22.816;2023-04-05T14:44:02;2.50;99.90
22923;DHT22;11627;51.322;22.816;2023-04-05T14:46:27;2.50;99.90
22923;DHT22;11627;51.322;22.816;2023-04-05T14:48:54;2.50;99.90
22923;DHT22;11627;51.322;22.816;2023-04-05T14:51:21;2.40;99.90
22923;DHT22;11627;51.322;22.816;2023-04-05T14:53:48;2.30;99.90
22923;DHT22;11627;51.322;22.816;2023-04-05T14:56:14;2.40;99.90
22923;DHT22;11627;51.322;22.816;2023-04-05T14:58:39;2.30;99.90
22923;DHT22;11627;51.322;22.816;2023-04-05T15:01:05;2.40;99.90
22923;DHT22;11627;51.322;22.816;2023-04-05T15:03:34;2.40;99.90
22923;DHT22;11627;51.322;22.816;2023-04-05T15:06:00;2.40;99.90
22923;DHT22;11627;51.322;22.816;2023-04-05T15:08:26;2.50;99.90
22923;DHT22;11627;51.322;22.816;2023-04-05T15:10:53;2.50;99.90
22923;DHT22;11627;51.322;22.816;2023-04-05T15:13:20;2.40;99.90
22923;DHT22;11627;51.322;22.816;2023-04-05T15:15:47;2.30;99.90
22923;DHT22;11627;51.322;22.816;2023-04-05T15:18:13;2.30;99.90
22923;DHT22;11627;51.322;22.816;2023-04-05T15:20:38;2.30;99.90
22923;DHT22;11627;51.322;22.816;2023-04-05T15:23:04;2.20;99.90
22923;DHT22;11627;51.322;22.816;2023-04-05T15:25:31;2.10;99.90
22923;DHT22;11627;51.322;22.816;2023-04-05T15:27:58;2.10;99.90
22923;DHT22;11627;51.322;22.816;2023-04-05T15:30:29;2.10;99.90
22923;DHT22;11627;51.322;22.816;2023-04-05T15:32:57;2.10;99.90
22923;DHT22;11627;51.322;22.816;2023-04-05T15:35:22;2.00;99.90
22923;DHT22;11627;51.322;22.816;2023-04-05T15:37:48;2.00;99.90
22923;DHT22;11627;51.322;22.816;2023-04-05T15:40:14;1.90;99.90
22923;DHT22;11627;51.322;22.816;2023-04-05T15:42:41;2.00;99.90
22923;DHT22;11627;51.322;22.816;2023-04-05T15:45:07;2.00;99.90
22923;DHT22;11627;51.322;22.816;2023-04-05T15:47:35;2.00;99.90
22923;DHT22;11627;51.322;22.816;2023-04-05T15:50:03;2.00;99.90
22923;DHT22;11627;51.322;22.816;2023-04-05T15:52:30;2.00;99.90
22923;DHT22;11627;51.322;22.816;2023-04-05T15:54:56;2.00;99.90
22923;DHT22;11627;51.322;22.816;2023-04-05T15:57:21;2.00;99.90
22923;DHT22;11627;51.322;22.816;2023-04-05T15:59:49;2.00;99.90
22923;DHT22;11627;51.322;22.816;2023-04-05T16:02:16;2.00;99.90
22923;DHT22;11627;51.322;22.816;2023-04-05T16:04:44;2.00;99.90
22923;DHT22;11627;51.322;22.816;2023-04-05T16:07:10;2.00;99.90